createdAt,value
2016-10-09T04:01:18.299Z,1025.62
2016-10-09T04:01:43.876Z,1025.66
2016-10-09T04:02:09.427Z,1025.63
2016-10-09T04:02:35.025Z,1025.61
2016-10-09T04:03:00.563Z,1025.65
2016-10-09T04:03:26.095Z,1025.67
2016-10-09T04:03:51.624Z,1025.68
2016-10-09T04:04:17.170Z,1025.63
2016-10-09T04:04:42.848Z,1025.63
2016-10-09T04:05:08.411Z,1025.64
2016-10-09T04:05:33.969Z,1025.63
2016-10-09T04:05:59.577Z,1025.61
2016-10-09T04:06:25.211Z,1025.61
2016-10-09T04:06:50.753Z,1025.62
2016-10-09T04:08:36.686Z,1025.61
2016-10-09T04:09:02.240Z,1025.61
2016-10-09T04:09:27.814Z,1025.62
2016-10-09T04:09:53.369Z,1025.58
2016-10-09T04:10:18.924Z,1025.59
2016-10-09T04:10:44.688Z,1025.57
2016-10-09T04:11:10.275Z,1025.58
2016-10-09T04:11:35.867Z,1025.56
2016-10-09T04:12:02.181Z,1025.58
2016-10-09T04:12:27.769Z,1025.59
2016-10-09T04:12:53.351Z,1025.57
2016-10-09T04:13:18.907Z,1025.6
2016-10-09T04:13:44.510Z,1025.6
2016-10-09T04:14:10.072Z,1025.56
2016-10-09T04:14:35.609Z,1025.62
2016-10-09T04:15:01.148Z,1025.59
2016-10-09T04:15:26.710Z,1025.61
2016-10-09T04:15:52.297Z,1025.62
2016-10-09T04:16:17.970Z,1025.59
2016-10-09T04:16:43.570Z,1025.58
2016-10-09T04:17:09.150Z,1025.59
2016-10-09T04:17:34.782Z,1025.57
2016-10-09T04:18:00.339Z,1025.59
2016-10-09T04:18:25.869Z,1025.59
2016-10-09T04:18:51.391Z,1025.58
2016-10-09T04:19:16.943Z,1025.6
2016-10-09T04:19:42.471Z,1025.58
2016-10-09T04:20:08.069Z,1025.61
2016-10-09T04:20:33.621Z,1025.61
2016-10-09T04:26:11.714Z,1025.57
2016-10-09T04:26:37.270Z,1025.56
2016-10-09T04:27:02.816Z,1025.6
2016-10-09T04:27:28.371Z,1025.54
2016-10-09T04:27:53.962Z,1025.56
2016-10-09T04:28:19.538Z,1025.6
2016-10-09T04:28:45.198Z,1025.61
2016-10-09T04:29:10.780Z,1025.63
2016-10-09T04:29:36.334Z,1025.59
2016-10-09T04:30:01.893Z,1025.62
2016-10-09T04:30:27.441Z,1025.6
2016-10-09T04:30:53.029Z,1025.6
2016-10-09T04:31:18.585Z,1025.64
2016-10-09T04:31:44.134Z,1025.55
2016-10-09T04:32:09.710Z,1025.59
2016-10-09T04:32:35.280Z,1025.6
2016-10-09T04:33:00.830Z,1025.62
2016-10-09T04:33:26.387Z,1025.56
2016-10-09T04:33:51.917Z,1025.58
2016-10-09T04:34:17.458Z,1025.55
2016-10-09T04:34:43.021Z,1025.55
2016-10-09T04:35:08.550Z,1025.57
2016-10-09T04:35:34.226Z,1025.59
2016-10-09T04:35:59.775Z,1025.57
2016-10-09T04:36:25.326Z,1025.6
2016-10-09T04:36:50.942Z,1025.58
2016-10-09T04:37:16.529Z,1025.58
2016-10-09T04:37:42.101Z,1025.58
2016-10-09T04:38:07.886Z,1025.54
2016-10-09T04:38:33.460Z,1025.53
2016-10-09T04:38:59.017Z,1025.52
2016-10-09T04:39:24.617Z,1025.49
2016-10-09T04:39:50.380Z,1025.52
2016-10-09T04:40:16.053Z,1025.51
2016-10-09T04:40:41.595Z,1025.51
2016-10-09T04:41:07.144Z,1025.52
2016-10-09T04:41:32.846Z,1025.56
2016-10-09T04:41:58.415Z,1025.48
2016-10-09T04:42:23.978Z,1025.51
2016-10-09T04:42:49.526Z,1025.49
2016-10-09T04:43:15.298Z,1025.49
2016-10-09T04:43:40.860Z,1025.54
2016-10-09T04:44:06.417Z,1025.53
2016-10-09T04:44:31.974Z,1025.52
2016-10-09T04:44:57.561Z,1025.54
2016-10-09T04:45:23.119Z,1025.53
2016-10-09T04:45:48.670Z,1025.49
2016-10-09T04:46:14.248Z,1025.53
2016-10-09T04:46:39.791Z,1025.51
2016-10-09T04:47:05.357Z,1025.48
2016-10-09T04:49:46.020Z,1025.47
2016-10-09T04:50:11.643Z,1025.44
2016-10-09T04:50:37.199Z,1025.48
2016-10-09T04:51:02.767Z,1025.43
2016-10-09T04:51:28.323Z,1025.5
2016-10-09T04:51:53.883Z,1025.49
2016-10-09T04:52:19.504Z,1025.5
2016-10-09T04:52:45.101Z,1025.52
2016-10-09T04:53:10.665Z,1025.49
2016-10-09T04:53:36.188Z,1025.51
2016-10-09T04:54:01.732Z,1025.5
2016-10-09T04:54:27.287Z,1025.52
2016-10-09T04:54:52.842Z,1025.51
2016-10-09T04:55:26.982Z,1025.52
2016-10-09T04:55:52.552Z,1025.55
2016-10-09T04:56:18.145Z,1025.53
2016-10-09T04:56:43.718Z,1025.49
2016-10-09T04:57:09.535Z,1025.56
2016-10-09T04:57:35.086Z,1025.57
2016-10-09T04:58:00.650Z,1025.49
2016-10-09T04:58:26.911Z,1025.52
2016-10-09T04:58:52.490Z,1025.51
2016-10-09T04:59:18.710Z,1025.52
2016-10-09T04:59:44.289Z,1025.49
2016-10-09T05:00:09.856Z,1025.51
2016-10-09T05:00:36.180Z,1025.54
2016-10-09T05:01:01.725Z,1025.57
2016-10-09T05:01:28.863Z,1025.52
2016-10-09T05:01:54.422Z,1025.51
2016-10-09T05:02:20.058Z,1025.55
2016-10-09T05:02:45.610Z,1025.58
2016-10-09T05:03:11.182Z,1025.51
2016-10-09T05:03:36.991Z,1025.56
2016-10-09T05:04:02.563Z,1025.53
2016-10-09T05:04:28.772Z,1025.56
2016-10-09T05:04:54.389Z,1025.5
2016-10-09T05:05:19.952Z,1025.55
2016-10-09T05:05:46.107Z,1025.52
2016-10-09T06:46:31.528Z,1025.42
2016-10-09T06:46:57.096Z,1025.4
2016-10-09T06:47:22.666Z,1025.39
2016-10-09T06:47:48.201Z,1025.41
2016-10-09T06:48:13.960Z,1025.43
2016-10-09T06:48:39.518Z,1025.45
2016-10-09T06:49:05.071Z,1025.45
2016-10-09T06:49:30.615Z,1025.46
2016-10-09T06:49:56.171Z,1025.46
2016-10-09T06:50:21.793Z,1025.41
2016-10-09T06:50:47.403Z,1025.43
2016-10-09T06:51:12.962Z,1025.49
2016-10-09T06:51:38.520Z,1025.46
2016-10-09T06:52:04.246Z,1025.46
2016-10-09T06:52:29.997Z,1025.41
2016-10-09T06:52:55.560Z,1025.4
2016-10-09T06:53:21.114Z,1025.42
2016-10-09T06:53:46.682Z,1025.45
2016-10-09T06:54:12.247Z,1025.41
2016-10-09T06:55:10.369Z,1025.4
2016-10-09T06:55:35.947Z,1025.41
2016-10-09T06:56:01.542Z,1025.42
2016-10-09T06:56:27.108Z,1025.4
2016-10-09T06:56:52.692Z,1025.4
2016-10-09T06:57:18.319Z,1025.39
2016-10-09T06:57:43.970Z,1025.41
2016-10-09T06:58:09.569Z,1025.4
2016-10-09T06:58:35.181Z,1025.42
2016-10-09T06:59:00.743Z,1025.4
2016-10-09T06:59:26.284Z,1025.39
2016-10-09T06:59:51.951Z,1025.41
2016-10-09T07:00:17.511Z,1025.43
2016-10-09T07:00:43.069Z,1025.41
2016-10-09T07:01:08.614Z,1025.45
2016-10-09T07:01:34.150Z,1025.49
2016-10-09T07:01:59.708Z,1025.43
2016-10-09T07:02:25.284Z,1025.45
2016-10-09T07:02:50.838Z,1025.46
2016-10-09T07:03:16.385Z,1025.48
2016-10-09T07:03:42.122Z,1025.5
2016-10-09T07:04:07.666Z,1025.47
2016-10-09T07:04:33.243Z,1025.5
2016-10-09T07:04:58.897Z,1025.52
2016-10-09T07:05:24.484Z,1025.53
2016-10-09T07:05:50.048Z,1025.49
2016-10-09T07:06:15.627Z,1025.53
2016-10-09T07:06:41.209Z,1025.55
2016-10-09T07:07:06.750Z,1025.52
2016-10-09T07:07:32.319Z,1025.51
2016-10-09T07:07:57.870Z,1025.51
2016-10-09T07:09:11.389Z,1025.49
2016-10-09T07:09:36.957Z,1025.45
2016-10-09T07:10:02.501Z,1025.46
2016-10-09T07:10:28.069Z,1025.51
2016-10-09T07:10:54.001Z,1025.55
2016-10-09T07:11:19.964Z,1025.48
2016-10-09T07:11:45.584Z,1025.55
2016-10-09T07:12:11.461Z,1025.5
2016-10-09T07:12:37.016Z,1025.5
2016-10-09T07:13:03.321Z,1025.53
2016-10-09T07:13:28.931Z,1025.56
2016-10-09T07:13:54.810Z,1025.56
2016-10-09T07:14:20.654Z,1025.54
2016-10-09T07:14:46.290Z,1025.57
2016-10-09T07:15:12.402Z,1025.58
2016-10-09T07:15:37.981Z,1025.55
2016-10-09T07:16:51.546Z,1025.58
2016-10-09T07:17:17.924Z,1025.56
2016-10-09T07:17:43.490Z,1025.57
2016-10-09T07:18:09.082Z,1025.58
2016-10-09T07:18:34.748Z,1025.55
2016-10-09T07:19:00.298Z,1025.6
2016-10-09T07:20:03.691Z,1025.57
2016-10-09T07:20:29.285Z,1025.59
2016-10-09T07:20:54.830Z,1025.6
2016-10-09T07:21:20.362Z,1025.58
2016-10-09T07:21:45.932Z,1025.6
2016-10-09T07:22:11.504Z,1025.62
2016-10-09T07:22:37.066Z,1025.58
2016-10-09T07:23:02.614Z,1025.59
2016-10-09T07:23:28.152Z,1025.61
2016-10-09T07:23:53.744Z,1025.62
2016-10-09T07:24:19.273Z,1025.63
2016-10-09T07:24:44.852Z,1025.64
2016-10-09T07:25:10.599Z,1025.61
2016-10-09T07:25:36.178Z,1025.6
2016-10-09T07:26:01.788Z,1025.61
2016-10-09T07:26:27.367Z,1025.58
2016-10-09T07:26:53.066Z,1025.58
2016-10-09T07:27:18.683Z,1025.61
2016-10-09T07:27:44.529Z,1025.6
2016-10-09T07:28:10.130Z,1025.61
2016-10-09T07:28:35.876Z,1025.61
2016-10-09T07:29:01.422Z,1025.61
2016-10-09T07:29:26.985Z,1025.63
2016-10-09T07:29:52.679Z,1025.61
2016-10-09T07:30:18.357Z,1025.6
2016-10-09T07:30:43.913Z,1025.63
2016-10-09T07:31:09.438Z,1025.64
2016-10-09T07:31:35.172Z,1025.61
2016-10-09T07:32:00.814Z,1025.62
2016-10-09T07:33:04.211Z,1025.6
2016-10-09T07:33:29.880Z,1025.58
2016-10-09T07:33:55.434Z,1025.6
2016-10-09T07:34:20.992Z,1025.6
2016-10-09T07:34:46.509Z,1025.59
2016-10-09T07:35:12.047Z,1025.56
2016-10-09T07:35:37.746Z,1025.61
2016-10-09T07:36:03.411Z,1025.55
2016-10-09T07:37:06.609Z,1025.58
2016-10-09T07:37:32.161Z,1025.56
2016-10-09T07:37:57.703Z,1025.54
2016-10-09T07:38:23.265Z,1025.52
2016-10-09T07:38:48.820Z,1025.52
2016-10-09T07:39:14.555Z,1025.51
2016-10-09T07:39:40.155Z,1025.53
2016-10-09T07:40:05.808Z,1025.55
2016-10-09T07:40:31.837Z,1025.52
2016-10-09T07:40:57.444Z,1025.51
2016-10-09T07:41:23.060Z,1025.5
2016-10-09T07:41:48.606Z,1025.5
2016-10-09T07:42:14.159Z,1025.52
2016-10-09T07:42:39.827Z,1025.48
2016-10-09T07:43:05.409Z,1025.42
2016-10-09T07:43:30.973Z,1025.46
2016-10-09T07:43:56.493Z,1025.44
2016-10-09T07:44:22.095Z,1025.44
2016-10-09T07:44:47.667Z,1025.44
2016-10-09T07:45:13.188Z,1025.44
2016-10-09T07:45:38.829Z,1025.47
2016-10-09T07:46:04.418Z,1025.46
2016-10-09T07:46:29.950Z,1025.48
2016-10-09T07:46:55.587Z,1025.5
2016-10-09T07:47:21.134Z,1025.51
2016-10-09T07:47:46.690Z,1025.53
2016-10-09T07:48:12.228Z,1025.56
2016-10-09T07:48:37.755Z,1025.62
2016-10-09T07:49:03.296Z,1025.57
2016-10-09T07:50:06.474Z,1025.59
2016-10-09T07:50:32.059Z,1025.6
2016-10-09T07:50:57.643Z,1025.53
2016-10-09T07:51:23.331Z,1025.56
2016-10-09T07:51:48.877Z,1025.54
2016-10-09T07:52:14.449Z,1025.55
2016-10-09T07:52:40.200Z,1025.59
2016-10-09T07:53:05.761Z,1025.57
2016-10-09T07:53:31.344Z,1025.54
2016-10-09T07:53:56.912Z,1025.57
2016-10-09T07:54:22.534Z,1025.56
2016-10-09T07:54:48.093Z,1025.52
2016-10-09T07:55:13.803Z,1025.52
2016-10-09T07:55:39.380Z,1025.56
2016-10-09T07:56:04.947Z,1025.48
2016-10-09T07:56:30.507Z,1025.48
2016-10-09T07:56:56.111Z,1025.48
2016-10-09T07:57:21.665Z,1025.53
2016-10-09T07:57:47.283Z,1025.58
2016-10-09T07:58:12.775Z,1025.5
2016-10-09T07:58:38.319Z,1025.51
2016-10-09T07:59:03.953Z,1025.54
2016-10-09T07:59:29.541Z,1025.54
2016-10-09T07:59:55.105Z,1025.57
2016-10-09T08:00:20.838Z,1025.55
2016-10-09T08:00:46.419Z,1025.57
2016-10-09T08:01:11.990Z,1025.57
2016-10-09T08:01:37.541Z,1025.54
2016-10-09T08:02:03.114Z,1025.56
2016-10-09T08:02:28.663Z,1025.55
2016-10-09T08:02:54.249Z,1025.55
2016-10-09T08:03:19.817Z,1025.53
2016-10-09T08:03:45.362Z,1025.55
2016-10-09T08:04:10.936Z,1025.55
2016-10-09T08:04:36.495Z,1025.54
2016-10-09T08:05:02.045Z,1025.55
2016-10-09T08:05:27.603Z,1025.51
2016-10-09T08:05:53.168Z,1025.56
2016-10-09T08:06:18.714Z,1025.53
2016-10-09T08:06:44.251Z,1025.54
2016-10-09T08:07:09.817Z,1025.55
2016-10-09T08:07:35.387Z,1025.56
2016-10-09T08:08:01.089Z,1025.58
2016-10-09T08:08:26.683Z,1025.56
2016-10-09T08:08:52.300Z,1025.56
2016-10-09T08:09:17.890Z,1025.56
2016-10-09T08:09:43.474Z,1025.53
2016-10-09T08:10:09.035Z,1025.58
2016-10-09T08:10:34.620Z,1025.54
2016-10-09T08:11:00.245Z,1025.57
2016-10-09T08:11:25.829Z,1025.56
2016-10-09T08:11:51.401Z,1025.56
2016-10-09T08:12:16.960Z,1025.6
2016-10-09T08:12:42.592Z,1025.57
2016-10-09T08:13:08.141Z,1025.55
2016-10-09T08:14:06.264Z,1025.55
2016-10-09T08:15:09.474Z,1025.56
2016-10-09T08:15:35.069Z,1025.53
2016-10-09T08:16:00.616Z,1025.51
2016-10-09T08:16:26.181Z,1025.54
2016-10-09T08:16:51.881Z,1025.53
2016-10-09T08:17:17.496Z,1025.52
2016-10-09T08:17:43.042Z,1025.52
2016-10-09T08:18:08.719Z,1025.6
2016-10-09T08:18:34.340Z,1025.55
2016-10-09T08:18:59.869Z,1025.53
2016-10-09T08:19:25.433Z,1025.52
2016-10-09T08:19:51.004Z,1025.52
2016-10-09T08:20:16.555Z,1025.55
2016-10-09T08:20:42.113Z,1025.57
2016-10-09T08:21:07.709Z,1025.56
2016-10-09T08:21:33.271Z,1025.53
2016-10-09T08:21:58.880Z,1025.57
2016-10-09T08:22:24.454Z,1025.52
2016-10-09T08:22:50.026Z,1025.57
2016-10-09T08:23:15.598Z,1025.58
2016-10-09T08:23:41.137Z,1025.53
2016-10-09T08:24:06.714Z,1025.57
2016-10-09T08:24:32.268Z,1025.58
2016-10-09T08:24:57.827Z,1025.58
2016-10-09T08:25:23.413Z,1025.59
2016-10-09T08:25:48.969Z,1025.55
2016-10-09T08:26:14.522Z,1025.56
2016-10-09T08:26:40.099Z,1025.62
2016-10-09T08:27:05.675Z,1025.53
2016-10-09T08:27:31.233Z,1025.52
2016-10-09T08:27:56.936Z,1025.53
2016-10-09T08:28:22.516Z,1025.54
2016-10-09T08:28:48.073Z,1025.53
2016-10-09T08:29:13.616Z,1025.53
2016-10-09T08:29:39.266Z,1025.55
2016-10-09T08:30:04.843Z,1025.55
2016-10-09T08:30:30.409Z,1025.55
2016-10-09T08:30:56.044Z,1025.45
2016-10-09T08:31:21.658Z,1025.47
2016-10-09T08:31:47.226Z,1025.48
2016-10-09T08:32:12.884Z,1025.52
2016-10-09T08:32:38.478Z,1025.53
2016-10-09T08:33:04.058Z,1025.48
2016-10-09T08:33:29.603Z,1025.46
2016-10-09T08:33:55.276Z,1025.48
2016-10-09T08:34:20.848Z,1025.42
2016-10-09T08:34:46.479Z,1025.5
2016-10-09T08:35:12.088Z,1025.52
2016-10-09T08:35:37.688Z,1025.46
2016-10-09T08:36:03.252Z,1025.5
2016-10-09T08:36:28.814Z,1025.54
2016-10-09T08:36:54.376Z,1025.49
2016-10-09T08:37:19.993Z,1025.52
2016-10-09T08:37:45.568Z,1025.54
2016-10-09T08:38:11.272Z,1025.47
2016-10-09T08:38:36.828Z,1025.47
2016-10-09T08:39:02.387Z,1025.49
2016-10-09T08:39:27.958Z,1025.43
2016-10-09T08:39:53.553Z,1025.52
2016-10-09T08:40:19.118Z,1025.47
2016-10-09T08:40:44.684Z,1025.5
2016-10-09T08:41:10.366Z,1025.5
2016-10-09T08:41:35.999Z,1025.47
2016-10-09T08:42:01.537Z,1025.51
2016-10-09T08:42:27.186Z,1025.45
2016-10-09T08:42:52.761Z,1025.48
2016-10-09T08:43:18.367Z,1025.5
2016-10-09T08:43:43.935Z,1025.51
2016-10-09T08:44:09.498Z,1025.53
2016-10-09T08:44:35.101Z,1025.49
2016-10-09T08:45:00.664Z,1025.48
2016-10-09T08:45:26.228Z,1025.5
2016-10-09T08:45:51.843Z,1025.48
2016-10-09T08:46:17.427Z,1025.48
2016-10-09T08:46:43.007Z,1025.44
2016-10-09T08:47:08.572Z,1025.48
2016-10-09T08:47:34.148Z,1025.43
2016-10-09T08:47:59.696Z,1025.43
2016-10-09T08:48:25.268Z,1025.46
2016-10-09T08:48:50.825Z,1025.45
2016-10-09T08:49:16.463Z,1025.45
2016-10-09T08:49:42.092Z,1025.47
2016-10-09T08:50:07.647Z,1025.46
2016-10-09T08:50:33.224Z,1025.5
2016-10-09T08:50:58.780Z,1025.47
2016-10-09T08:51:24.356Z,1025.45
2016-10-09T08:51:49.923Z,1025.46
2016-10-09T08:52:15.492Z,1025.49
2016-10-09T08:52:41.078Z,1025.47
2016-10-09T08:53:06.830Z,1025.45
2016-10-09T08:53:32.383Z,1025.44
2016-10-09T08:53:57.940Z,1025.42
2016-10-09T08:54:23.513Z,1025.46
2016-10-09T08:54:49.077Z,1025.45
2016-10-09T08:55:14.613Z,1025.43
2016-10-09T08:56:17.413Z,1025.45
2016-10-09T08:58:24.412Z,1025.48
2016-10-09T08:58:49.983Z,1025.48
2016-10-09T08:59:15.589Z,1025.46
2016-10-09T08:59:41.143Z,1025.47
2016-10-09T09:00:06.702Z,1025.46
2016-10-09T09:00:32.415Z,1025.45
2016-10-09T09:00:57.961Z,1025.46
2016-10-09T09:01:23.537Z,1025.47
2016-10-09T09:01:49.115Z,1025.44
2016-10-09T09:02:14.639Z,1025.48
2016-10-09T09:02:40.247Z,1025.45
2016-10-09T09:03:05.822Z,1025.46
2016-10-09T09:03:31.400Z,1025.49
2016-10-09T09:03:56.980Z,1025.48
2016-10-09T09:04:22.546Z,1025.46
2016-10-09T09:04:48.145Z,1025.43
2016-10-09T09:05:14.204Z,1025.46
2016-10-09T09:05:39.817Z,1025.46
2016-10-09T09:06:05.415Z,1025.4
2016-10-09T09:06:31.575Z,1025.41
2016-10-09T09:06:57.143Z,1025.48
2016-10-09T09:07:23.383Z,1025.43
2016-10-09T09:07:48.953Z,1025.47
2016-10-09T09:08:14.552Z,1025.43
2016-10-09T09:08:40.713Z,1025.46
2016-10-09T09:09:06.278Z,1025.47
2016-10-09T09:09:32.540Z,1025.44
2016-10-09T09:09:58.111Z,1025.44
2016-10-09T09:10:24.262Z,1025.46
2016-10-09T09:10:49.935Z,1025.42
2016-10-09T09:11:15.508Z,1025.46
2016-10-09T09:11:41.665Z,1025.51
2016-10-09T09:12:07.243Z,1025.45
2016-10-09T09:13:10.466Z,1025.47
2016-10-09T09:13:36.042Z,1025.46
2016-10-09T09:14:01.600Z,1025.45
2016-10-09T09:14:27.312Z,1025.46
2016-10-09T09:14:52.896Z,1025.43
2016-10-09T09:16:10.735Z,1025.38
2016-10-09T09:16:36.277Z,1025.47
2016-10-09T09:17:01.852Z,1025.45
2016-10-09T09:17:27.439Z,1025.46
2016-10-09T09:17:53.390Z,1025.45
2016-10-09T09:18:18.950Z,1025.46
2016-10-09T09:18:44.497Z,1025.45
2016-10-09T09:19:10.756Z,1025.5
2016-10-09T09:19:36.320Z,1025.45
2016-10-09T09:20:02.571Z,1025.46
2016-10-09T09:20:28.290Z,1025.43
2016-10-09T09:20:53.877Z,1025.42
2016-10-09T09:21:19.945Z,1025.45
2016-10-09T09:21:45.545Z,1025.46
2016-10-09T09:22:11.703Z,1025.46
2016-10-09T09:22:37.269Z,1025.45
2016-10-09T09:23:03.459Z,1025.47
2016-10-09T09:23:29.032Z,1025.43
2016-10-09T09:23:54.620Z,1025.44
2016-10-09T09:24:20.839Z,1025.42
2016-10-09T09:24:46.395Z,1025.43
2016-10-09T09:25:12.622Z,1025.49
2016-10-09T09:25:38.184Z,1025.47
2016-10-09T09:26:03.735Z,1025.41
2016-10-09T09:26:29.969Z,1025.44
2016-10-09T09:26:55.551Z,1025.47
2016-10-09T09:27:21.857Z,1025.44
2016-10-09T09:27:47.408Z,1025.42
2016-10-09T09:28:13.550Z,1025.43
2016-10-09T09:28:39.112Z,1025.42
2016-10-09T09:29:04.675Z,1025.38
2016-10-09T09:29:30.928Z,1025.39
2016-10-09T09:29:56.542Z,1025.45
2016-10-09T09:30:22.714Z,1025.45
2016-10-09T09:30:48.259Z,1025.45
2016-10-09T09:31:13.885Z,1025.45
2016-10-09T09:31:40.063Z,1025.41
2016-10-09T09:32:05.652Z,1025.46
2016-10-09T09:32:31.970Z,1025.45
2016-10-09T09:32:57.549Z,1025.44
2016-10-09T09:33:23.635Z,1025.5
2016-10-09T09:33:49.185Z,1025.46
2016-10-09T09:34:14.751Z,1025.44
2016-10-09T09:34:40.993Z,1025.45
2016-10-09T09:35:06.565Z,1025.43
2016-10-09T09:35:32.827Z,1025.46
2016-10-09T09:35:58.441Z,1025.47
2016-10-09T09:36:24.096Z,1025.47
2016-10-09T09:36:50.116Z,1025.48
2016-10-09T09:37:15.827Z,1025.48
2016-10-09T09:37:41.947Z,1025.46
2016-10-09T09:38:07.539Z,1025.49
2016-10-09T09:38:33.693Z,1025.49
2016-10-09T09:38:59.382Z,1025.49
2016-10-09T09:39:24.938Z,1025.47
2016-10-09T09:39:51.085Z,1025.49
2016-10-09T09:40:16.651Z,1025.48
2016-10-09T09:40:42.876Z,1025.51
2016-10-09T09:41:08.460Z,1025.52
2016-10-09T09:41:34.066Z,1025.51
2016-10-09T09:42:00.228Z,1025.51
2016-10-09T09:43:08.563Z,1025.53
2016-10-09T09:43:34.144Z,1025.49
2016-10-09T09:43:59.698Z,1025.49
2016-10-09T09:44:25.227Z,1025.49
2016-10-09T09:44:50.923Z,1025.46
2016-10-09T09:45:16.470Z,1025.47
2016-10-09T09:45:42.021Z,1025.51
2016-10-09T09:46:07.604Z,1025.5
2016-10-09T09:46:33.318Z,1025.52
2016-10-09T09:46:58.861Z,1025.47
2016-10-09T09:47:24.427Z,1025.47
2016-10-09T09:47:50.113Z,1025.49
2016-10-09T09:48:15.696Z,1025.51
2016-10-09T09:48:41.264Z,1025.45
2016-10-09T09:49:06.831Z,1025.49
2016-10-09T09:49:32.569Z,1025.47
2016-10-09T09:49:58.123Z,1025.44
2016-10-09T09:51:11.573Z,1025.47
2016-10-09T09:51:37.196Z,1025.48
2016-10-09T09:52:02.748Z,1025.48
2016-10-09T09:52:28.318Z,1025.44
2016-10-09T09:52:53.969Z,1025.44
2016-10-09T09:53:19.503Z,1025.46
2016-10-09T09:53:45.043Z,1025.44
2016-10-09T09:55:03.636Z,1025.41
2016-10-09T09:55:29.297Z,1025.44
2016-10-09T09:55:54.859Z,1025.43
2016-10-09T09:56:20.406Z,1025.39
2016-10-09T09:56:45.972Z,1025.39
2016-10-09T09:57:11.533Z,1025.41
2016-10-09T09:57:37.093Z,1025.4
2016-10-09T09:58:02.652Z,1025.36
2016-10-09T09:58:28.198Z,1025.4
2016-10-09T09:58:53.782Z,1025.4
2016-10-09T09:59:19.431Z,1025.4
2016-10-09T09:59:44.978Z,1025.41
2016-10-09T10:00:10.573Z,1025.4
2016-10-09T10:00:36.150Z,1025.39
2016-10-09T10:01:01.717Z,1025.39
2016-10-09T10:01:27.279Z,1025.38
2016-10-09T10:01:52.849Z,1025.39
2016-10-09T10:03:11.730Z,1025.41
2016-10-09T10:03:37.314Z,1025.4
2016-10-09T10:04:02.986Z,1025.4
2016-10-09T10:04:28.587Z,1025.37
2016-10-09T10:04:54.134Z,1025.39
2016-10-09T10:05:19.721Z,1025.39
2016-10-09T10:05:45.288Z,1025.4
2016-10-09T10:06:10.851Z,1025.39
2016-10-09T10:06:36.402Z,1025.38
2016-10-09T10:07:01.967Z,1025.38
2016-10-09T10:07:27.609Z,1025.39
2016-10-09T10:07:53.157Z,1025.36
2016-10-09T10:08:18.723Z,1025.39
2016-10-09T10:08:44.295Z,1025.37
2016-10-09T10:09:09.852Z,1025.38
2016-10-09T10:09:35.418Z,1025.39
2016-10-09T10:10:00.972Z,1025.4
2016-10-09T10:10:26.567Z,1025.42
2016-10-09T10:10:52.133Z,1025.42
2016-10-09T10:11:17.774Z,1025.41
2016-10-09T10:11:43.536Z,1025.38
2016-10-09T10:12:09.103Z,1025.36
2016-10-09T10:12:34.688Z,1025.38
2016-10-09T10:13:53.473Z,1025.39
2016-10-09T10:14:19.154Z,1025.39
2016-10-09T10:14:44.739Z,1025.41
2016-10-09T10:15:10.310Z,1025.36
2016-10-09T10:15:35.874Z,1025.38
2016-10-09T10:16:01.502Z,1025.41
2016-10-09T10:16:27.052Z,1025.39
2016-10-09T10:16:52.619Z,1025.39
2016-10-09T10:17:18.176Z,1025.38
2016-10-09T10:17:43.749Z,1025.36
2016-10-09T10:18:09.356Z,1025.41
2016-10-09T10:18:34.923Z,1025.39
2016-10-09T10:19:00.476Z,1025.41
2016-10-09T10:19:26.170Z,1025.4
2016-10-09T10:19:51.765Z,1025.37
2016-10-09T10:20:17.298Z,1025.38
2016-10-09T10:20:42.877Z,1025.38
2016-10-09T10:21:08.581Z,1025.37
2016-10-09T10:21:34.160Z,1025.34
2016-10-09T10:21:59.762Z,1025.35
2016-10-09T10:22:25.330Z,1025.38
2016-10-09T10:22:50.890Z,1025.39
2016-10-09T10:23:16.524Z,1025.38
2016-10-09T10:23:42.099Z,1025.39
2016-10-09T10:24:07.815Z,1025.37
2016-10-09T10:24:33.413Z,1025.36
2016-10-09T10:24:58.983Z,1025.38
2016-10-09T10:25:24.568Z,1025.34
2016-10-09T10:25:50.164Z,1025.36
2016-10-09T10:26:15.739Z,1025.35
2016-10-09T10:26:41.369Z,1025.37
2016-10-09T10:27:07.003Z,1025.38
2016-10-09T10:27:32.730Z,1025.39
2016-10-09T10:27:58.317Z,1025.35
2016-10-09T10:28:23.874Z,1025.41
2016-10-09T10:28:49.427Z,1025.4
2016-10-09T10:29:14.983Z,1025.41
2016-10-09T10:29:40.566Z,1025.39
2016-10-09T10:30:06.152Z,1025.36
2016-10-09T10:30:31.718Z,1025.42
2016-10-09T10:30:57.298Z,1025.39
2016-10-09T10:31:22.867Z,1025.36
2016-10-09T10:31:48.469Z,1025.4
2016-10-09T10:32:14.035Z,1025.34
2016-10-09T10:32:39.605Z,1025.34
2016-10-09T10:33:05.198Z,1025.35
2016-10-09T10:33:30.759Z,1025.39
2016-10-09T10:33:56.353Z,1025.37
2016-10-09T10:34:21.915Z,1025.34
2016-10-09T10:34:47.544Z,1025.35
2016-10-09T10:35:13.122Z,1025.36
2016-10-09T10:35:38.889Z,1025.39
2016-10-09T10:36:04.437Z,1025.37
2016-10-09T10:36:29.981Z,1025.36
2016-10-09T10:36:55.546Z,1025.34
2016-10-09T10:37:21.177Z,1025.35
2016-10-09T10:37:46.757Z,1025.38
2016-10-09T10:38:12.344Z,1025.35
2016-10-09T10:38:37.957Z,1025.34
2016-10-09T10:39:03.540Z,1025.31
2016-10-09T10:39:29.099Z,1025.35
2016-10-09T10:39:54.670Z,1025.32
2016-10-09T10:40:20.266Z,1025.31
2016-10-09T10:40:45.845Z,1025.32
2016-10-09T10:41:11.408Z,1025.35
2016-10-09T10:41:36.988Z,1025.34
2016-10-09T10:42:02.575Z,1025.32
2016-10-09T10:42:28.162Z,1025.31
2016-10-09T10:42:53.829Z,1025.33
2016-10-09T10:43:19.408Z,1025.29
2016-10-09T10:43:45.036Z,1025.28
2016-10-09T10:44:10.664Z,1025.3
2016-10-09T10:44:36.239Z,1025.33
2016-10-09T10:45:01.813Z,1025.31
2016-10-09T10:45:27.432Z,1025.34
2016-10-09T10:45:52.991Z,1025.32
2016-10-09T10:46:18.569Z,1025.3
2016-10-09T10:46:44.124Z,1025.33
2016-10-09T10:47:09.691Z,1025.28
2016-10-09T10:47:35.264Z,1025.3
2016-10-09T10:48:00.856Z,1025.29
2016-10-09T10:48:26.498Z,1025.26
2016-10-09T10:48:52.075Z,1025.3
2016-10-09T10:50:10.664Z,1025.27
2016-10-09T10:50:36.317Z,1025.3
2016-10-09T10:51:01.887Z,1025.27
2016-10-09T10:51:27.512Z,1025.26
2016-10-09T10:51:53.114Z,1025.26
2016-10-09T10:52:18.707Z,1025.28
2016-10-09T10:52:44.545Z,1025.27
2016-10-09T10:53:10.086Z,1025.28
2016-10-09T10:53:35.786Z,1025.28
2016-10-09T10:54:01.355Z,1025.31
2016-10-09T10:54:26.943Z,1025.3
2016-10-09T10:54:52.500Z,1025.32
2016-10-09T10:55:18.063Z,1025.31
2016-10-09T10:55:43.648Z,1025.26
2016-10-09T10:56:09.235Z,1025.28
2016-10-09T10:58:05.511Z,1025.25
2016-10-09T10:58:31.060Z,1025.27
2016-10-09T10:58:56.639Z,1025.25
2016-10-09T10:59:22.252Z,1025.31
2016-10-09T10:59:47.795Z,1025.26
2016-10-09T11:00:13.367Z,1025.28
2016-10-09T11:00:38.934Z,1025.27
2016-10-09T11:01:04.707Z,1025.26
2016-10-09T11:01:30.297Z,1025.24
2016-10-09T11:01:55.876Z,1025.24
2016-10-09T11:02:21.446Z,1025.26
2016-10-09T11:02:46.990Z,1025.25
2016-10-09T11:03:12.567Z,1025.28
2016-10-09T11:03:38.156Z,1025.31
2016-10-09T11:04:03.734Z,1025.23
2016-10-09T11:05:06.961Z,1025.25
2016-10-09T11:05:32.522Z,1025.22
2016-10-09T11:05:58.079Z,1025.22
2016-10-09T11:06:23.645Z,1025.22
2016-10-09T11:06:49.242Z,1025.2
2016-10-09T11:07:14.828Z,1025.14
2016-10-09T11:07:40.366Z,1025.18
2016-10-09T11:08:05.910Z,1025.18
2016-10-09T11:08:31.440Z,1025.2
2016-10-09T11:08:57.016Z,1025.18
2016-10-09T11:09:22.579Z,1025.15
2016-10-09T11:09:48.155Z,1025.2
2016-10-09T11:10:13.714Z,1025.14
2016-10-09T11:10:39.265Z,1025.2
2016-10-09T11:11:04.889Z,1025.2
2016-10-09T11:11:30.466Z,1025.19
2016-10-09T11:11:56.021Z,1025.13
2016-10-09T11:12:21.582Z,1025.15
2016-10-09T11:12:47.159Z,1025.15
2016-10-09T11:14:06.124Z,1025.14
2016-10-09T11:14:31.681Z,1025.08
2016-10-09T11:14:57.270Z,1025.12
2016-10-09T11:15:22.843Z,1025.09
2016-10-09T11:15:48.420Z,1025.07
2016-10-09T11:16:14.006Z,1025.1
2016-10-09T11:16:39.603Z,1025.09
2016-10-09T11:17:05.149Z,1025.08
2016-10-09T11:17:30.686Z,1025.04
2016-10-09T11:17:56.254Z,1025.06
2016-10-09T11:18:21.905Z,1025.05
2016-10-09T11:18:47.499Z,1025.04
2016-10-09T11:19:13.078Z,1025.09